Terminal Aerodrome Forecast
Issued by NWS

Home | Current Version | Previous Version | Text Only | Print | Product List | Glossary On
Versions: 1 2 3 4 5 6 7 8 9 10 11 12 13 14 15 16
600
FTUS46 KMTR 050536
TAFOAK
TAF
KOAK 050536Z 0506/0612 26007KT P6SM FEW015 BKN030 BKN150
     FM050800 26006KT P6SM BKN020 OVC150
     FM051100 25010KT P6SM BKN015
     FM051600 24008KT P6SM SCT020 BKN030
     FM052000 26009KT P6SM VCSH SCT035 BKN100
     FM052300 27012KT P6SM VCSH SCT035 BKN080
     FM060500 26008KT P6SM VCSH BKN035 OVC080=

USA.gov is the U.S. government's official web portal to all federal, state and local government web resources and services.